createdAt,value
2023-03-02T00:01:25.903Z,101528.47
2023-03-02T00:03:53.890Z,101529.41
2023-03-02T00:06:21.391Z,101529.63
2023-03-02T00:08:48.399Z,101513.46
2023-03-02T00:11:15.737Z,101526.39
2023-03-02T00:13:43.543Z,101509.36
2023-03-02T00:16:10.299Z,101526.27
2023-03-02T00:18:37.556Z,101523.86
2023-03-02T00:21:04.491Z,101522.70
2023-03-02T00:23:31.132Z,101516.83
2023-03-02T00:25:57.882Z,101514.64
2023-03-02T00:28:24.587Z,101513.79
2023-03-02T00:30:51.185Z,101516.96
2023-03-02T00:33:19.340Z,101514.23
2023-03-02T00:35:46.730Z,101513.76
2023-03-02T00:38:13.381Z,101514.31
2023-03-02T00:40:45.268Z,101513.30
2023-03-02T00:43:12.711Z,101513.19
2023-03-02T00:45:39.335Z,101512.02
2023-03-02T00:48:06.529Z,101510.30
2023-03-02T00:50:38.689Z,101508.08
2023-03-02T00:53:05.213Z,101507.41
2023-03-02T00:55:32.153Z,101506.05
2023-03-02T00:57:58.895Z,101501.23
2023-03-02T01:00:28.439Z,101503.67
2023-03-02T01:02:57.468Z,101501.47
2023-03-02T01:05:24.426Z,101501.48
2023-03-02T01:07:51.427Z,101501.20
2023-03-02T01:10:18.332Z,101491.55
2023-03-02T01:12:45.147Z,101490.18
2023-03-02T01:15:12.116Z,101496.96
2023-03-02T01:17:40.717Z,101497.35
2023-03-02T01:20:08.425Z,101493.38
2023-03-02T01:22:38.332Z,101492.01
2023-03-02T01:25:06.162Z,101486.48
2023-03-02T01:27:32.943Z,101484.08
2023-03-02T01:29:59.568Z,101484.45
2023-03-02T01:32:26.714Z,101481.02
2023-03-02T01:34:54.154Z,101474.80
2023-03-02T01:37:22.348Z,101473.09
2023-03-02T01:39:50.189Z,101470.17
2023-03-02T01:42:17.268Z,101469.17
2023-03-02T01:44:46.588Z,101459.67
2023-03-02T01:47:16.132Z,101456.92
2023-03-02T01:50:02.848Z,101459.21
2023-03-02T01:52:37.617Z,101459.23
2023-03-02T01:55:08.269Z,101444.26
2023-03-02T01:57:42.945Z,101458.39
2023-03-02T02:00:14.056Z,101458.74
2023-03-02T02:02:41.508Z,101456.70
2023-03-02T02:05:15.307Z,101452.19
2023-03-02T02:07:43.241Z,101436.17
2023-03-02T02:10:11.942Z,101453.25
2023-03-02T02:12:38.726Z,101454.12
2023-03-02T02:15:06.467Z,101458.99
2023-03-02T02:17:34.072Z,101460.40
2023-03-02T02:20:23.509Z,101449.74
2023-03-02T02:23:18.837Z,101462.17
2023-03-02T02:26:34.920Z,101464.77
2023-03-02T02:29:05.555Z,101464.61
2023-03-02T02:31:35.156Z,101467.91
2023-03-02T02:34:41.098Z,101467.91
2023-03-02T02:37:14.608Z,101470.85
2023-03-02T02:39:45.619Z,101469.48
2023-03-02T02:42:19.058Z,101470.17
2023-03-02T02:44:47.226Z,101467.56
2023-03-02T02:47:20.458Z,101466.50
2023-03-02T02:49:51.287Z,101452.31
2023-03-02T02:52:21.323Z,101462.25
2023-03-02T02:54:51.354Z,101467.23
2023-03-02T02:57:21.055Z,101467.20
2023-03-02T02:59:50.590Z,101458.40
2023-03-02T03:02:24.823Z,101465.41
2023-03-02T03:05:02.851Z,101467.92
2023-03-02T03:07:32.574Z,101464.41
2023-03-02T03:10:18.553Z,101458.48
2023-03-02T03:12:46.820Z,101453.21
2023-03-02T03:15:15.923Z,101454.56
2023-03-02T03:17:56.323Z,101450.01
2023-03-02T03:20:24.824Z,101433.45
2023-03-02T03:22:55.109Z,101449.73
2023-03-02T03:25:27.935Z,101450.01
2023-03-02T03:27:54.852Z,101450.30
2023-03-02T03:30:22.080Z,101439.68
2023-03-02T03:32:49.172Z,101439.27
2023-03-02T03:35:16.181Z,101440.96
2023-03-02T03:37:42.968Z,101439.36
2023-03-02T03:40:10.705Z,101441.06
2023-03-02T03:42:39.461Z,101439.64
2023-03-02T03:45:08.282Z,101437.67
2023-03-02T03:47:36.420Z,101433.80
2023-03-02T03:50:03.771Z,101432.89
2023-03-02T03:52:31.238Z,101433.88
2023-03-02T03:55:05.142Z,101432.45
2023-03-02T03:57:32.501Z,101432.77
2023-03-02T03:59:59.266Z,101430.29
2023-03-02T04:02:26.847Z,101414.58
2023-03-02T04:04:53.755Z,101424.48
2023-03-02T04:07:20.893Z,101422.54
2023-03-02T04:09:47.799Z,101425.44
2023-03-02T04:12:15.873Z,101425.23
2023-03-02T04:14:47.123Z,101415.23
2023-03-02T04:17:14.176Z,101431.91
2023-03-02T04:19:45.117Z,101427.70
2023-03-02T04:22:11.752Z,101429.57
2023-03-02T04:24:38.453Z,101430.75
2023-03-02T04:27:05.467Z,101433.67
2023-03-02T04:29:34.762Z,101418.83
2023-03-02T04:32:04.056Z,101431.17
2023-03-02T04:34:33.231Z,101432.15
2023-03-02T04:37:00.618Z,101432.11
2023-03-02T04:39:27.438Z,101430.33
2023-03-02T04:41:54.675Z,101427.16
2023-03-02T04:44:21.842Z,101428.35
2023-03-02T04:46:50.039Z,101429.52
2023-03-02T04:49:19.291Z,101427.39
2023-03-02T06:17:52.489Z,101476.79
2023-03-02T06:20:19.905Z,101479.38
2023-03-02T06:22:46.505Z,101483.36
2023-03-02T06:25:16.464Z,101482.80
2023-03-02T06:27:43.847Z,101487.47
2023-03-02T06:30:14.138Z,101490.39
2023-03-02T06:32:41.403Z,101494.54
2023-03-02T06:35:09.254Z,101492.95
2023-03-02T06:37:36.369Z,101482.60
2023-03-02T06:40:11.380Z,101494.42
2023-03-02T06:42:39.116Z,101492.98
2023-03-02T06:45:06.843Z,101496.09
2023-03-02T06:47:34.270Z,101497.45
2023-03-02T06:50:01.816Z,101497.94
2023-03-02T06:52:28.790Z,101498.41
2023-03-02T06:54:55.946Z,101502.90
2023-03-02T06:57:23.072Z,101501.45
2023-03-02T06:59:49.839Z,101502.45
2023-03-02T07:02:16.510Z,101491.27
2023-03-02T07:04:43.327Z,101502.40
2023-03-02T07:07:10.305Z,101502.02
2023-03-02T07:09:37.510Z,101501.80
2023-03-02T07:12:04.464Z,101499.52
2023-03-02T07:14:31.022Z,101501.75
2023-03-02T07:16:59.705Z,101499.98
2023-03-02T07:19:26.510Z,101501.34
2023-03-02T07:21:53.104Z,101499.93
2023-03-02T07:24:19.996Z,101497.12
2023-03-02T07:26:46.770Z,101495.88
2023-03-02T07:29:13.431Z,101492.53
2023-03-02T07:31:40.255Z,101493.04
2023-03-02T07:34:07.105Z,101489.19
2023-03-02T07:36:33.710Z,101491.08
2023-03-02T07:39:02.956Z,101486.02
2023-03-02T07:41:29.663Z,101485.80
2023-03-02T07:43:56.836Z,101486.99
2023-03-02T07:46:23.838Z,101484.54
2023-03-02T07:48:51.538Z,101489.91
2023-03-02T07:51:18.403Z,101484.68
2023-03-02T07:53:45.119Z,101478.98
2023-03-02T07:56:12.068Z,101487.42
2023-03-02T07:58:38.773Z,101485.31
2023-03-02T08:01:05.585Z,101487.53
2023-03-02T08:03:32.646Z,101488.70
2023-03-02T08:06:07.805Z,101480.35
2023-03-02T08:08:35.744Z,101479.78
2023-03-02T08:11:11.334Z,101476.59
2023-03-02T08:13:38.225Z,101474.45
2023-03-02T08:16:06.938Z,101469.54
2023-03-02T08:18:34.673Z,101469.13
2023-03-02T08:21:02.723Z,101467.52
2023-03-02T08:23:29.540Z,101465.90
2023-03-02T08:25:56.512Z,101460.11
2023-03-02T08:28:24.141Z,101464.42
2023-03-02T08:30:55.930Z,101465.77
2023-03-02T08:33:23.258Z,101466.08
2023-03-02T08:36:02.094Z,101465.50
2023-03-02T08:38:29.995Z,101469.80
2023-03-02T08:40:57.285Z,101470.44
2023-03-02T08:43:25.228Z,101469.19
2023-03-02T08:45:59.001Z,101465.14
2023-03-02T08:48:27.211Z,101466.98
2023-03-02T08:50:57.725Z,101463.45
2023-03-02T08:53:25.318Z,101463.93
2023-03-02T08:55:52.436Z,101462.65
2023-03-02T08:58:19.118Z,101461.04
2023-03-02T09:00:46.143Z,101455.92
2023-03-02T09:03:13.087Z,101446.50
2023-03-02T09:05:39.975Z,101455.52
2023-03-02T09:08:07.837Z,101457.54
2023-03-02T09:10:35.651Z,101456.80
2023-03-02T09:13:02.259Z,101458.68
2023-03-02T09:15:29.120Z,101455.98
2023-03-02T09:17:56.310Z,101457.66
2023-03-02T09:20:23.073Z,101453.75
2023-03-02T09:22:50.480Z,101439.73
2023-03-02T09:25:18.308Z,101455.67
2023-03-02T09:27:46.534Z,101453.00
2023-03-02T09:30:14.507Z,101455.55
2023-03-02T09:32:41.990Z,101452.48
2023-03-02T09:35:08.852Z,101452.05
2023-03-02T09:37:38.371Z,101458.59
2023-03-02T09:40:16.137Z,101454.34
2023-03-02T09:42:49.064Z,101454.23
2023-03-02T09:45:31.290Z,101451.17
2023-03-02T09:48:25.215Z,101448.99
2023-03-02T09:51:06.955Z,101442.52
2023-03-02T09:53:51.773Z,101442.36
2023-03-02T09:56:20.475Z,101438.78
2023-03-02T09:58:53.630Z,101442.00
2023-03-02T10:01:42.195Z,101441.02
2023-03-02T10:04:21.413Z,101427.67
2023-03-02T10:06:55.032Z,101439.38
2023-03-02T10:09:21.902Z,101437.52
2023-03-02T10:12:00.471Z,101434.63
2023-03-02T10:14:34.935Z,101430.71
2023-03-02T10:17:21.238Z,101430.11
2023-03-02T10:20:01.188Z,101426.54
2023-03-02T10:22:42.489Z,101426.63
2023-03-02T10:25:37.610Z,101428.13
2023-03-02T10:28:28.012Z,101421.55
2023-03-02T10:31:09.568Z,101418.29
2023-03-02T10:33:45.459Z,101414.35
2023-03-02T10:36:23.737Z,101414.92
2023-03-02T10:38:52.014Z,101414.64
2023-03-02T10:41:28.053Z,101414.88
2023-03-02T10:44:03.917Z,101413.52
2023-03-02T10:46:42.176Z,101409.78
2023-03-02T10:49:24.548Z,101412.41
2023-03-02T10:52:05.955Z,101410.91
2023-03-02T10:54:34.820Z,101405.45
2023-03-02T10:57:05.071Z,101406.09
2023-03-02T10:59:43.232Z,101405.52
2023-03-02T11:02:15.474Z,101407.39
2023-03-02T11:04:42.801Z,101404.55
2023-03-02T11:07:19.233Z,101405.20
2023-03-02T11:10:18.851Z,101406.36
2023-03-02T11:12:48.071Z,101400.09
2023-03-02T11:15:29.245Z,101398.98
2023-03-02T11:18:06.012Z,101397.76
2023-03-02T11:20:43.066Z,101394.59
2023-03-02T11:23:19.253Z,101378.88
2023-03-02T11:25:56.548Z,101385.34
2023-03-02T11:28:45.378Z,101387.85
2023-03-02T11:31:22.060Z,101383.84
2023-03-02T11:34:15.649Z,101382.60
2023-03-02T11:37:11.559Z,101381.35
2023-03-02T11:40:00.696Z,101381.72
2023-03-02T11:42:30.234Z,101380.45
2023-03-02T11:45:01.345Z,101384.25
2023-03-02T11:47:31.319Z,101383.00
2023-03-02T11:50:04.499Z,101381.91
2023-03-02T11:52:36.151Z,101380.83
2023-03-02T11:55:13.628Z,101378.19
2023-03-02T11:57:48.253Z,101375.36
2023-03-02T12:00:31.005Z,101373.39
2023-03-02T12:03:17.574Z,101373.71
2023-03-02T12:05:57.786Z,101369.48
2023-03-02T12:08:24.510Z,101367.91
2023-03-02T12:11:08.370Z,101368.73
2023-03-02T12:13:40.049Z,101367.26
2023-03-02T12:16:34.283Z,101370.38
2023-03-02T12:19:25.591Z,101365.80
2023-03-02T12:22:01.929Z,101360.72
2023-03-02T12:24:34.968Z,101359.84
2023-03-02T12:27:04.828Z,101360.42
2023-03-02T12:29:44.397Z,101361.08
2023-03-02T12:32:26.682Z,101358.74
2023-03-02T12:35:08.914Z,101359.21
2023-03-02T12:37:46.853Z,101355.99
2023-03-02T12:40:33.323Z,101353.16
2023-03-02T12:43:23.559Z,101351.18
2023-03-02T12:45:59.318Z,101348.50
2023-03-02T12:48:50.454Z,101343.19
2023-03-02T12:51:25.610Z,101341.50
2023-03-02T12:54:29.780Z,101339.19
2023-03-02T12:57:06.603Z,101335.60
2023-03-02T12:59:35.990Z,101335.19
2023-03-02T13:02:28.283Z,101331.08
2023-03-02T13:05:01.451Z,101326.55
2023-03-02T13:07:36.346Z,101323.89
2023-03-02T13:10:29.022Z,101320.51
2023-03-02T13:12:57.749Z,101320.98
2023-03-02T13:15:25.078Z,101319.05
2023-03-02T13:17:55.024Z,101316.74
2023-03-02T13:20:24.760Z,101317.42
2023-03-02T13:22:51.762Z,101314.48
2023-03-02T13:25:26.354Z,101312.16
2023-03-02T13:28:10.570Z,101308.39
2023-03-02T13:30:43.163Z,101308.19
2023-03-02T13:33:23.152Z,101306.09
2023-03-02T13:35:50.266Z,101305.27
2023-03-02T13:38:19.222Z,101301.50
2023-03-02T13:40:51.235Z,101296.23
2023-03-02T13:43:38.931Z,101297.95
2023-03-02T13:46:28.316Z,101294.94
2023-03-02T13:49:10.131Z,101292.16
2023-03-02T13:51:41.099Z,101281.00
2023-03-02T13:54:25.220Z,101284.81
2023-03-02T13:56:53.809Z,101280.77
2023-03-02T13:59:21.779Z,101278.40
2023-03-02T14:01:49.172Z,101274.78
2023-03-02T14:04:21.104Z,101271.80
2023-03-02T14:06:52.088Z,101267.07
2023-03-02T14:09:19.520Z,101262.30
2023-03-02T14:11:52.786Z,101259.48
2023-03-02T14:14:23.721Z,101252.95
2023-03-02T14:16:50.656Z,101243.28
2023-03-02T14:19:18.069Z,101245.44
2023-03-02T14:21:45.837Z,101242.40
2023-03-02T14:24:12.404Z,101242.03
2023-03-02T14:26:49.801Z,101238.17
2023-03-02T14:29:24.668Z,101234.86
2023-03-02T14:31:52.780Z,101232.23
2023-03-02T14:34:19.495Z,101199.60
2023-03-02T14:36:50.492Z,101229.52
2023-03-02T14:39:37.219Z,101229.17
2023-03-02T14:42:06.432Z,101225.39
2023-03-02T14:44:33.116Z,101223.48
2023-03-02T14:46:59.952Z,101224.42
2023-03-02T14:49:26.969Z,101221.51
2023-03-02T14:52:33.685Z,101217.38
2023-03-02T14:55:05.964Z,101215.52
2023-03-02T14:57:38.124Z,101211.92
2023-03-02T15:00:06.879Z,101214.77
2023-03-02T15:02:34.493Z,101208.02
2023-03-02T15:05:01.360Z,101205.09
2023-03-02T15:07:28.450Z,101211.10
2023-03-02T15:09:56.910Z,101210.48
2023-03-02T15:12:24.392Z,101193.34
2023-03-02T15:14:51.202Z,101204.66
2023-03-02T15:17:18.982Z,101202.42
2023-03-02T15:19:46.538Z,101198.34
2023-03-02T15:22:13.409Z,101200.70
2023-03-02T15:24:40.097Z,101155.87
2023-03-02T15:27:07.184Z,101198.19
2023-03-02T15:29:34.245Z,101179.82
2023-03-02T15:32:00.926Z,101195.13
2023-03-02T15:34:28.684Z,101196.95
2023-03-02T15:36:55.413Z,101196.31
2023-03-02T15:39:22.243Z,101196.02
2023-03-02T15:41:49.354Z,101191.18
2023-03-02T15:44:21.367Z,101192.98
2023-03-02T15:46:56.597Z,101194.23
2023-03-02T15:49:26.798Z,101188.95
2023-03-02T15:51:57.646Z,101193.80
2023-03-02T15:54:26.238Z,101189.98
2023-03-02T15:56:53.084Z,101187.40
2023-03-02T15:59:21.667Z,101187.13
2023-03-02T16:01:49.296Z,101189.44
2023-03-02T16:04:16.315Z,101189.66
2023-03-02T16:06:44.123Z,101189.16
2023-03-02T16:09:11.126Z,101186.95
2023-03-02T16:11:38.004Z,101183.69
2023-03-02T16:14:05.258Z,101185.46
2023-03-02T16:16:32.480Z,101185.54
2023-03-02T16:18:59.339Z,101184.24
2023-03-02T16:21:28.236Z,101182.40
2023-03-02T16:24:02.356Z,101180.92
2023-03-02T16:26:29.157Z,101181.55
2023-03-02T16:28:56.309Z,101182.90
2023-03-02T16:31:26.065Z,101184.09
2023-03-02T16:33:55.531Z,101183.52
2023-03-02T16:36:22.514Z,101185.92
2023-03-02T16:38:49.404Z,101185.00
2023-03-02T16:41:21.714Z,101186.17
2023-03-02T16:43:54.436Z,101181.64
2023-03-02T16:46:23.226Z,101182.52
2023-03-02T16:48:50.653Z,101182.23
2023-03-02T16:51:19.115Z,101185.48
2023-03-02T16:53:46.658Z,101184.23
2023-03-02T16:56:14.957Z,101184.16
2023-03-02T16:58:42.374Z,101185.80
2023-03-02T17:01:15.892Z,101181.85
2023-03-02T17:03:43.790Z,101177.24
2023-03-02T17:06:12.898Z,101175.23
2023-03-02T17:08:40.249Z,101174.63
2023-03-02T17:11:10.118Z,101178.36
2023-03-02T17:13:36.974Z,101180.73
2023-03-02T17:16:04.142Z,101180.45
2023-03-02T17:18:33.209Z,101182.43
2023-03-02T17:21:00.437Z,101184.09
2023-03-02T17:23:27.792Z,101179.48
2023-03-02T17:25:55.483Z,101180.25
2023-03-02T17:28:22.624Z,101178.75
2023-03-02T17:30:49.560Z,101175.48
2023-03-02T17:33:17.607Z,101173.81
2023-03-02T17:35:45.600Z,101172.46
2023-03-02T17:38:13.978Z,101173.34
2023-03-02T17:40:44.130Z,101175.97
2023-03-02T17:43:12.166Z,101177.36
2023-03-02T17:45:39.258Z,101173.36
2023-03-02T17:48:06.535Z,101169.16
2023-03-02T17:50:34.142Z,101168.60
2023-03-02T17:53:02.493Z,101167.70
2023-03-02T17:55:33.107Z,101172.34
2023-03-02T17:58:04.199Z,101174.19
2023-03-02T18:00:30.994Z,101164.40
2023-03-02T18:02:57.692Z,101169.23
2023-03-02T18:05:25.220Z,101166.73
2023-03-02T18:07:53.919Z,101163.87
2023-03-02T18:10:20.585Z,101164.48
2023-03-02T18:12:48.813Z,101153.30
2023-03-02T18:15:16.455Z,101154.26
2023-03-02T18:17:43.259Z,101168.58
2023-03-02T18:20:10.699Z,101171.92
2023-03-02T18:22:37.595Z,101173.38
2023-03-02T18:25:05.289Z,101173.30
2023-03-02T18:27:32.332Z,101169.03
2023-03-02T18:29:59.029Z,101165.63
2023-03-02T18:32:25.910Z,101167.62
2023-03-02T18:34:52.972Z,101167.88
2023-03-02T18:37:19.913Z,101156.30
2023-03-02T18:39:47.380Z,101172.15
2023-03-02T18:42:14.383Z,101171.17
2023-03-02T18:44:41.128Z,101172.61
2023-03-02T18:47:09.432Z,101171.11
2023-03-02T18:49:37.818Z,101156.73
2023-03-02T18:52:06.361Z,101169.98
2023-03-02T18:54:33.862Z,101168.27
2023-03-02T18:57:02.068Z,101166.07
2023-03-02T18:59:29.323Z,101165.76
2023-03-02T19:01:56.902Z,101162.70
2023-03-02T19:04:26.607Z,101161.55
2023-03-02T19:06:55.947Z,101163.35
2023-03-02T19:09:23.201Z,101165.13
2023-03-02T19:11:50.702Z,101161.02
2023-03-02T19:14:17.706Z,101158.13
2023-03-02T19:16:45.065Z,101158.03
2023-03-02T19:19:12.112Z,101160.31
2023-03-02T19:21:39.350Z,101156.92
2023-03-02T19:24:07.676Z,101153.51
2023-03-02T19:26:35.705Z,101155.11
2023-03-02T19:29:03.137Z,101153.59
2023-03-02T19:31:32.714Z,101150.84
2023-03-02T19:33:59.876Z,101157.63
2023-03-02T19:36:27.271Z,101158.02
2023-03-02T19:38:53.957Z,101154.22
2023-03-02T19:41:21.353Z,101154.93
2023-03-02T19:43:48.491Z,101156.72
2023-03-02T19:46:16.649Z,101158.16
2023-03-02T19:48:44.117Z,101158.54
2023-03-02T19:51:31.926Z,101157.54
2023-03-02T19:54:04.160Z,101161.23
2023-03-02T19:56:37.369Z,101159.21
2023-03-02T19:59:04.600Z,101157.70
2023-03-02T20:01:31.362Z,101155.66
2023-03-02T20:03:59.544Z,101156.01
2023-03-02T20:06:30.346Z,101141.98
2023-03-02T20:09:00.942Z,101157.80
2023-03-02T20:11:37.665Z,101161.10
2023-03-02T20:14:04.676Z,101162.36
2023-03-02T20:16:36.710Z,101156.34
2023-03-02T20:19:22.023Z,101160.86
2023-03-02T20:21:50.340Z,101155.14
2023-03-02T20:24:17.290Z,101152.55
2023-03-02T20:27:14.803Z,101152.59
2023-03-02T20:29:44.817Z,101151.06
2023-03-02T20:32:16.638Z,101150.73
2023-03-02T20:34:52.236Z,101153.70
2023-03-02T20:40:06.378Z,101151.81
2023-03-02T20:42:59.798Z,101147.85
2023-03-02T20:49:32.121Z,101132.45
2023-03-02T20:52:36.588Z,101140.85
2023-03-02T20:55:09.736Z,101132.39
2023-03-02T20:57:37.085Z,101133.45
2023-03-02T21:00:06.748Z,101128.10
2023-03-02T21:02:33.690Z,101129.17
2023-03-02T21:09:01.014Z,101125.43
2023-03-02T21:11:46.764Z,101124.77
2023-03-02T21:14:43.178Z,101124.14
2023-03-02T21:17:09.813Z,101121.59
2023-03-02T21:19:36.982Z,101121.27
2023-03-02T21:22:04.747Z,101107.56
2023-03-02T21:24:31.447Z,101115.98
2023-03-02T21:27:00.777Z,101114.05
2023-03-02T21:29:27.890Z,101109.26
2023-03-02T21:31:55.309Z,101108.59
2023-03-02T21:34:22.743Z,101106.70
2023-03-02T21:37:08.327Z,101103.43
2023-03-02T21:42:42.733Z,101091.17
2023-03-02T21:45:11.794Z,101093.12
2023-03-02T21:47:41.360Z,101087.61
2023-03-02T21:53:07.308Z,101083.36
2023-03-02T21:55:35.220Z,101083.04
2023-03-02T21:58:03.997Z,101086.18
2023-03-02T22:00:34.442Z,101082.39
2023-03-02T22:03:02.918Z,101081.71
2023-03-02T22:09:11.429Z,101084.89
2023-03-02T22:11:41.642Z,101083.69
2023-03-02T22:14:17.996Z,101081.10
2023-03-02T22:20:55.742Z,101080.78
2023-03-02T22:23:26.450Z,101076.65
2023-03-02T22:26:00.497Z,101078.03
2023-03-02T22:28:58.240Z,101079.77
2023-03-02T22:31:25.591Z,101079.23
2023-03-02T22:33:53.309Z,101080.77
2023-03-02T22:36:42.094Z,101073.17
2023-03-02T22:46:28.502Z,101072.67
2023-03-02T22:48:58.336Z,101068.52
2023-03-02T22:51:48.077Z,101055.30
2023-03-02T22:54:37.815Z,101070.25
2023-03-02T22:57:21.414Z,101068.02
2023-03-02T22:59:48.754Z,101060.25
2023-03-02T23:02:20.474Z,101063.70
2023-03-02T23:04:48.272Z,101061.46
2023-03-02T23:07:21.001Z,101060.09
2023-03-02T23:09:49.723Z,101057.15
2023-03-02T23:12:27.674Z,101053.02
2023-03-02T23:14:56.680Z,101055.27
2023-03-02T23:17:38.152Z,101053.39
2023-03-02T23:20:09.420Z,101052.50
2023-03-02T23:22:38.384Z,101047.49
2023-03-02T23:25:07.345Z,101042.14
2023-03-02T23:27:34.824Z,101037.69
2023-03-02T23:30:02.312Z,101025.66
2023-03-02T23:32:29.178Z,101023.73
2023-03-02T23:34:55.915Z,101033.80
2023-03-02T23:37:22.837Z,101033.76
2023-03-02T23:39:49.951Z,101030.09
2023-03-02T23:42:16.737Z,101032.31
2023-03-02T23:44:44.114Z,101028.33
2023-03-02T23:47:11.069Z,101029.33
2023-03-02T23:49:38.213Z,101027.38
2023-03-02T23:52:05.515Z,101028.23
2023-03-02T23:54:34.220Z,101025.23
2023-03-02T23:57:01.015Z,101018.80
2023-03-02T23:59:27.660Z,101021.55
